Time;durP1;ratioP1;P1;durP2;ratioP2;P2;SDS_P1;SDS_P2;PMS_P1;PMS_P2;Temp;Humidity;BMP_temperature;BMP_pressure;BME280_temperature;BME280_humidity;BME280_pressure;Samples;Min_cycle;Max_cycle;Signal;HPM_P1;HPM_P2
2023/04/24 00:00:09;;;;;;;1.05;0.40;;;12.70;99.90;;;;;;5017924;28;20069;-77
2023/04/24 00:02:39;;;;;;;1.25;0.52;;;12.70;99.90;;;;;;5015984;28;20050;-80
2023/04/24 00:05:07;;;;;;;1.70;0.50;;;12.70;99.90;;;;;;5018711;28;20139;-78
2023/04/24 00:07:34;;;;;;;1.65;0.40;;;12.70;99.90;;;;;;5018505;28;20540;-79
2023/04/24 00:10:01;;;;;;;0.35;0.30;;;12.60;99.90;;;;;;5016795;28;20046;-79
2023/04/24 00:12:28;;;;;;;1.75;0.60;;;12.60;99.90;;;;;;5018011;28;20080;-79
2023/04/24 00:14:55;;;;;;;3.35;0.57;;;12.60;99.90;;;;;;5016614;28;20045;-77
2023/04/24 00:17:21;;;;;;;0.40;0.40;;;12.60;99.90;;;;;;5018045;28;20491;-77
2023/04/24 00:19:51;;;;;;;1.55;0.40;;;12.50;99.90;;;;;;5018206;28;20379;-80
2023/04/24 00:22:18;;;;;;;1.83;0.43;;;12.50;99.90;;;;;;5017739;28;20048;-78
2023/04/24 00:24:44;;;;;;;0.50;0.30;;;12.50;99.90;;;;;;5015881;28;20108;-79
2023/04/24 00:27:11;;;;;;;0.68;0.30;;;12.50;99.90;;;;;;5022243;28;20041;-79
2023/04/24 00:29:38;;;;;;;1.05;0.40;;;12.60;99.90;;;;;;5019675;28;20137;-79
2023/04/24 00:32:04;;;;;;;1.30;0.47;;;12.60;99.90;;;;;;5015471;28;20137;-81
2023/04/24 00:34:32;;;;;;;1.95;0.40;;;12.60;99.90;;;;;;5017185;28;20077;-79
2023/04/24 00:36:59;;;;;;;1.75;0.43;;;12.60;99.90;;;;;;5014916;28;20136;-80
2023/04/24 00:39:26;;;;;;;0.80;0.32;;;12.70;99.90;;;;;;5013969;28;20132;-79
2023/04/24 00:41:53;;;;;;;1.85;0.40;;;12.70;99.90;;;;;;5016694;28;20128;-78
2023/04/24 00:44:19;;;;;;;1.40;0.40;;;12.70;99.90;;;;;;5014828;28;20117;-80
2023/04/24 00:46:47;;;;;;;0.60;0.30;;;12.70;99.90;;;;;;5013183;28;20074;-80
2023/04/24 00:49:14;;;;;;;0.30;0.30;;;12.70;99.90;;;;;;5013553;28;20038;-79
2023/04/24 00:51:45;;;;;;;0.43;0.30;;;12.80;99.90;;;;;;5013773;28;20511;-79
2023/04/24 00:54:12;;;;;;;1.55;0.55;;;12.80;99.90;;;;;;5014965;28;20049;-80
2023/04/24 00:56:41;;;;;;;1.33;0.43;;;12.80;99.90;;;;;;5015587;28;20092;-79
2023/04/24 00:59:08;;;;;;;0.40;0.38;;;12.80;99.90;;;;;;5015850;28;20136;-80
2023/04/24 01:01:35;;;;;;;0.52;0.40;;;12.90;99.90;;;;;;5013460;28;20141;-80
2023/04/24 01:04:02;;;;;;;1.40;0.52;;;12.90;99.90;;;;;;5014229;28;20050;-80
2023/04/24 01:06:31;;;;;;;1.02;0.30;;;12.80;99.90;;;;;;5017421;28;20050;-80
2023/04/24 01:09:00;;;;;;;0.63;0.30;;;12.80;99.90;;;;;;5017086;28;20042;-79
2023/04/24 01:11:26;;;;;;;1.00;0.57;;;12.90;99.90;;;;;;5017287;28;20129;-80
2023/04/24 01:13:53;;;;;;;1.10;0.60;;;12.80;99.90;;;;;;5016721;28;20747;-80
2023/04/24 01:16:23;;;;;;;0.77;0.40;;;12.80;99.90;;;;;;5014219;28;20045;-79
2023/04/24 01:18:49;;;;;;;0.22;0.22;;;12.80;99.90;;;;;;5015975;28;20081;-80
2023/04/24 01:21:17;;;;;;;0.60;0.40;;;12.80;99.90;;;;;;5013636;28;20045;-80
2023/04/24 01:23:45;;;;;;;1.42;0.60;;;12.80;99.90;;;;;;5017166;28;20109;-78
2023/04/24 01:26:13;;;;;;;1.00;0.38;;;12.80;99.90;;;;;;5015322;28;20069;-79
2023/04/24 01:28:40;;;;;;;0.70;0.43;;;12.80;99.90;;;;;;5016949;28;20579;-80
2023/04/24 01:31:07;;;;;;;4.55;0.60;;;12.80;99.90;;;;;;5012817;28;20065;-80
2023/04/24 01:33:34;;;;;;;0.75;0.52;;;12.70;99.90;;;;;;5014755;28;20128;-78
2023/04/24 01:36:01;;;;;;;1.45;0.38;;;12.70;99.90;;;;;;5014896;28;20046;-79
2023/04/24 01:38:27;;;;;;;1.48;0.40;;;12.70;99.90;;;;;;5013971;28;20172;-80
2023/04/24 01:40:54;;;;;;;0.30;0.30;;;12.70;99.90;;;;;;5015169;28;20069;-78
2023/04/24 01:43:21;;;;;;;0.73;0.50;;;12.80;99.90;;;;;;5015960;28;20042;-79
2023/04/24 01:45:48;;;;;;;2.75;0.60;;;12.70;99.90;;;;;;5011152;28;20057;-79
2023/04/24 01:48:15;;;;;;;0.73;0.40;;;12.70;99.90;;;;;;5016702;28;20042;-79
2023/04/24 01:50:42;;;;;;;1.50;0.55;;;12.80;99.90;;;;;;5011662;28;20497;-80
2023/04/24 01:53:08;;;;;;;0.70;0.40;;;12.80;99.90;;;;;;5011462;28;20048;-78
2023/04/24 01:55:35;;;;;;;0.82;0.40;;;12.80;99.90;;;;;;5015387;28;20132;-78
2023/04/24 01:58:02;;;;;;;2.78;0.52;;;12.80;99.90;;;;;;5015673;28;20052;-79
2023/04/24 02:00:28;;;;;;;0.77;0.40;;;12.80;99.90;;;;;;5015592;28;20430;-79
2023/04/24 02:02:55;;;;;;;1.58;0.68;;;12.80;99.90;;;;;;5014443;28;20505;-80
2023/04/24 02:05:22;;;;;;;1.05;0.50;;;12.80;99.90;;;;;;5014907;28;20049;-78
2023/04/24 02:07:49;;;;;;;1.00;0.55;;;12.80;99.90;;;;;;5014626;28;20096;-79
2023/04/24 02:10:16;;;;;;;2.50;0.60;;;12.80;99.90;;;;;;5015620;28;20121;-79
2023/04/24 02:12:43;;;;;;;0.45;0.38;;;12.70;99.90;;;;;;5013157;28;20060;-80
2023/04/24 02:15:10;;;;;;;1.55;0.32;;;12.70;99.90;;;;;;5012577;28;20046;-79
2023/04/24 02:17:37;;;;;;;3.10;0.50;;;12.70;99.90;;;;;;5014743;28;20560;-79
2023/04/24 02:20:05;;;;;;;2.03;0.55;;;12.70;99.90;;;;;;5014662;28;20050;-78
2023/04/24 02:22:32;;;;;;;1.00;0.50;;;12.60;99.90;;;;;;5014345;28;20140;-78
2023/04/24 02:24:58;;;;;;;1.67;0.70;;;12.70;99.90;;;;;;5029555;28;21050;-80
2023/04/24 02:27:25;;;;;;;1.10;0.68;;;12.60;99.90;;;;;;5030123;28;20042;-79
2023/04/24 02:29:52;;;;;;;2.35;0.60;;;12.60;99.90;;;;;;5014274;28;20432;-80
2023/04/24 02:32:19;;;;;;;1.27;0.60;;;12.60;99.90;;;;;;5013637;28;20129;-79
2023/04/24 02:34:45;;;;;;;1.98;0.50;;;12.60;99.90;;;;;;5013166;28;21728;-78
2023/04/24 02:37:12;;;;;;;1.83;0.60;;;12.60;99.90;;;;;;5012892;28;20508;-78
2023/04/24 02:39:40;;;;;;;2.45;0.70;;;12.50;99.90;;;;;;5012659;28;20060;-79
2023/04/24 02:42:07;;;;;;;2.15;0.52;;;12.60;99.90;;;;;;5014336;28;20054;-79
2023/04/24 02:44:34;;;;;;;2.08;0.63;;;12.60;99.90;;;;;;5014325;28;20046;-77
2023/04/24 02:47:01;;;;;;;3.20;0.52;;;12.60;99.90;;;;;;5005234;28;20049;-78
2023/04/24 02:49:28;;;;;;;1.55;0.55;;;12.50;99.90;;;;;;5014765;28;20062;-78
2023/04/24 02:51:54;;;;;;;4.93;0.70;;;12.50;99.90;;;;;;5014305;28;20124;-77
2023/04/24 02:54:21;;;;;;;3.33;0.98;;;12.50;99.90;;;;;;5014509;28;20041;-77
2023/04/24 02:56:48;;;;;;;3.35;0.80;;;12.50;99.90;;;;;;5016583;28;20042;-77
2023/04/24 02:59:14;;;;;;;2.95;0.63;;;12.50;99.90;;;;;;5013550;28;20042;-78
2023/04/24 03:01:41;;;;;;;2.97;0.60;;;12.50;99.90;;;;;;5013394;28;20133;-78
2023/04/24 03:04:08;;;;;;;1.73;0.60;;;12.50;99.90;;;;;;5012591;28;20042;-80
2023/04/24 03:06:35;;;;;;;2.53;0.70;;;12.40;99.90;;;;;;5025083;28;20167;-80
2023/04/24 03:09:03;;;;;;;1.52;0.55;;;12.40;99.90;;;;;;5030883;28;20448;-79
2023/04/24 03:11:29;;;;;;;4.13;0.73;;;12.40;99.90;;;;;;5014111;28;20050;-78
2023/04/24 03:13:56;;;;;;;2.03;0.50;;;12.40;99.90;;;;;;5013759;28;20054;-80
2023/04/24 03:16:23;;;;;;;2.53;0.50;;;12.40;99.90;;;;;;5012445;28;20129;-80
2023/04/24 03:18:49;;;;;;;2.35;0.68;;;12.30;99.90;;;;;;5012544;28;20054;-79
2023/04/24 03:21:16;;;;;;;3.47;0.90;;;12.40;99.90;;;;;;5013726;28;20137;-79
2023/04/24 03:23:43;;;;;;;3.33;2.00;;;12.40;99.90;;;;;;5005377;28;20049;-82
2023/04/24 03:26:10;;;;;;;1.88;0.73;;;12.40;99.90;;;;;;5013140;28;20125;-79
2023/04/24 03:28:36;;;;;;;2.90;0.80;;;12.40;99.90;;;;;;5015125;28;20081;-80
2023/04/24 03:31:03;;;;;;;1.80;0.80;;;12.30;99.90;;;;;;5013888;28;20065;-80
2023/04/24 03:33:30;;;;;;;5.80;0.85;;;12.30;99.90;;;;;;5014840;28;20120;-80
2023/04/24 03:35:57;;;;;;;3.50;0.90;;;12.30;99.90;;;;;;5013467;28;20129;-81
2023/04/24 03:38:23;;;;;;;2.15;0.80;;;12.30;99.90;;;;;;5015034;28;20073;-79
2023/04/24 03:40:50;;;;;;;2.70;0.60;;;12.30;99.90;;;;;;5013413;28;20080;-79
2023/04/24 03:43:17;;;;;;;2.45;0.68;;;12.20;99.90;;;;;;5012970;28;20072;-80
2023/04/24 03:45:43;;;;;;;3.63;0.70;;;12.10;99.90;;;;;;5012258;28;20113;-80
2023/04/24 03:48:10;;;;;;;2.78;0.93;;;12.10;99.90;;;;;;5014443;28;20124;-81
2023/04/24 03:50:37;;;;;;;3.95;0.70;;;12.10;99.90;;;;;;5016377;28;20077;-79
2023/04/24 03:53:04;;;;;;;0.75;0.52;;;12.10;99.90;;;;;;5015770;28;20148;-80
2023/04/24 03:55:30;;;;;;;0.70;0.70;;;12.10;99.90;;;;;;5015449;28;20081;-81
2023/04/24 03:57:57;;;;;;;1.95;0.80;;;12.10;99.90;;;;;;5014020;28;20136;-79
2023/04/24 04:00:24;;;;;;;2.20;0.70;;;12.10;99.90;;;;;;5015157;28;20545;-79
2023/04/24 04:02:51;;;;;;;4.55;1.10;;;12.10;99.90;;;;;;5014566;28;20056;-81
2023/04/24 04:05:17;;;;;;;1.70;0.80;;;12.10;99.90;;;;;;5015292;28;20077;-81
2023/04/24 04:07:44;;;;;;;2.45;0.90;;;12.10;99.90;;;;;;5011291;28;20173;-80
2023/04/24 04:10:11;;;;;;;2.10;0.77;;;12.00;99.90;;;;;;5015437;28;20097;-80
2023/04/24 04:12:38;;;;;;;1.95;0.90;;;12.00;99.90;;;;;;5014600;28;20073;-80
2023/04/24 04:15:06;;;;;;;0.65;0.65;;;12.10;99.90;;;;;;5013302;28;20457;-80
2023/04/24 04:17:33;;;;;;;2.80;0.80;;;12.10;99.90;;;;;;5015081;28;20054;-78
2023/04/24 04:20:00;;;;;;;2.72;0.75;;;12.10;99.90;;;;;;5012728;28;20058;-80
2023/04/24 04:22:27;;;;;;;2.22;0.77;;;12.00;99.90;;;;;;5013410;28;20176;-80
2023/04/24 04:24:54;;;;;;;1.73;0.77;;;12.00;99.90;;;;;;5011932;28;20528;-80
2023/04/24 04:27:21;;;;;;;1.83;0.90;;;12.10;99.90;;;;;;5014529;28;20067;-79
2023/04/24 04:29:48;;;;;;;1.27;0.85;;;12.00;99.90;;;;;;5031976;28;20096;-79
2023/04/24 04:32:15;;;;;;;3.60;1.10;;;12.00;99.90;;;;;;5014655;28;20069;-80
2023/04/24 04:34:42;;;;;;;2.15;1.00;;;12.00;99.90;;;;;;5017025;28;20108;-80
2023/04/24 04:37:10;;;;;;;2.35;0.90;;;12.00;99.90;;;;;;5016782;28;20593;-79
2023/04/24 04:39:37;;;;;;;2.25;0.95;;;11.90;99.90;;;;;;5017311;28;20042;-79
2023/04/24 04:42:04;;;;;;;1.80;1.10;;;11.90;99.90;;;;;;5007268;28;20150;-80
2023/04/24 04:44:31;;;;;;;2.25;1.10;;;11.80;99.90;;;;;;5017222;28;20070;-79
2023/04/24 04:46:58;;;;;;;3.90;1.20;;;11.90;99.90;;;;;;5016194;28;20042;-78
2023/04/24 04:49:28;;;;;;;2.55;1.30;;;11.80;99.90;;;;;;5014744;28;20070;-80
2023/04/24 04:51:55;;;;;;;2.80;1.10;;;11.80;99.90;;;;;;5015299;28;20050;-80
2023/04/24 04:54:21;;;;;;;1.35;0.80;;;11.80;99.90;;;;;;5014497;28;20473;-78
2023/04/24 04:56:50;;;;;;;1.25;0.93;;;11.80;99.90;;;;;;5016451;28;20053;-78
2023/04/24 04:59:17;;;;;;;1.73;1.15;;;11.80;99.90;;;;;;5015373;28;20050;-79
2023/04/24 05:01:43;;;;;;;4.03;1.45;;;11.80;99.90;;;;;;5015178;28;20141;-81
2023/04/24 05:04:10;;;;;;;3.67;1.50;;;11.70;99.90;;;;;;5015909;28;20141;-80
2023/04/24 05:06:37;;;;;;;2.53;1.27;;;11.70;99.90;;;;;;5015255;28;20052;-80
2023/04/24 05:09:04;;;;;;;1.90;1.10;;;11.70;99.90;;;;;;5017522;28;20045;-79
2023/04/24 05:11:30;;;;;;;3.55;1.60;;;11.70;99.90;;;;;;5015685;28;20140;-80
2023/04/24 05:13:57;;;;;;;3.75;1.50;;;11.70;99.90;;;;;;5014775;28;20653;-78
2023/04/24 05:16:24;;;;;;;2.70;1.50;;;11.60;99.90;;;;;;5014947;28;20075;-80
2023/04/24 05:18:51;;;;;;;4.93;1.58;;;11.60;99.90;;;;;;5015905;28;20058;-80
2023/04/24 05:21:17;;;;;;;3.92;2.28;;;11.60;99.90;;;;;;5015911;28;20042;-79
2023/04/24 05:23:44;;;;;;;3.42;1.30;;;11.50;99.90;;;;;;5015095;28;20597;-79
2023/04/24 05:26:11;;;;;;;3.17;1.63;;;11.50;99.90;;;;;;5014888;28;20045;-79
2023/04/24 05:28:37;;;;;;;5.57;1.25;;;11.60;99.90;;;;;;5016306;28;20109;-79
2023/04/24 05:31:04;;;;;;;2.10;1.48;;;11.50;99.90;;;;;;5015504;28;20046;-80
2023/04/24 05:33:31;;;;;;;4.65;1.77;;;11.60;99.90;;;;;;5014226;28;20078;-80
2023/04/24 05:35:58;;;;;;;3.20;1.55;;;11.60;99.90;;;;;;5015400;28;20688;-78
2023/04/24 05:38:24;;;;;;;5.47;1.92;;;11.60;99.90;;;;;;5013758;28;20049;-80
2023/04/24 05:40:51;;;;;;;6.80;1.83;;;11.60;99.90;;;;;;5015295;28;20441;-80
2023/04/24 05:43:18;;;;;;;4.03;1.30;;;11.60;99.90;;;;;;5016783;28;20133;-78
2023/04/24 05:45:45;;;;;;;6.97;1.60;;;11.60;99.90;;;;;;5012832;28;20072;-79
2023/04/24 05:48:12;;;;;;;2.67;1.67;;;11.70;99.90;;;;;;5014815;28;20129;-77
2023/04/24 05:50:39;;;;;;;1.95;1.23;;;11.70;99.90;;;;;;5013027;28;20115;-79
2023/04/24 05:53:07;;;;;;;3.55;1.52;;;11.70;99.90;;;;;;5015934;28;20081;-79
2023/04/24 05:55:33;;;;;;;5.18;1.38;;;11.70;99.90;;;;;;5016239;28;20188;-80
2023/04/24 05:58:00;;;;;;;2.00;1.45;;;11.70;99.90;;;;;;5015937;28;20057;-79
2023/04/24 06:00:28;;;;;;;2.88;1.60;;;11.70;99.90;;;;;;5016238;28;20046;-79
2023/04/24 06:02:55;;;;;;;3.42;1.60;;;11.70;99.90;;;;;;5017176;28;20046;-79
2023/04/24 06:05:22;;;;;;;2.28;1.63;;;11.70;99.90;;;;;;5037541;23;20134;-76
2023/04/24 06:07:49;;;;;;;4.35;1.90;;;11.70;99.90;;;;;;5039749;28;20425;-76
2023/04/24 06:10:16;;;;;;;3.22;2.00;;;11.70;99.90;;;;;;5033151;28;20140;-76
2023/04/24 06:12:43;;;;;;;2.60;1.80;;;11.60;99.90;;;;;;5033705;28;20037;-75
2023/04/24 06:15:10;;;;;;;2.05;1.65;;;11.60;99.90;;;;;;5032468;28;20056;-75
2023/04/24 06:17:37;;;;;;;2.75;1.70;;;11.60;99.90;;;;;;5026096;28;20103;-75
2023/04/24 06:20:05;;;;;;;9.50;5.57;;;11.50;99.90;;;;;;5021160;28;20624;-76
2023/04/24 06:22:32;;;;;;;3.38;2.72;;;11.60;99.90;;;;;;5021294;28;20045;-76
2023/04/24 06:25:00;;;;;;;4.10;2.38;;;11.50;99.90;;;;;;5019368;28;20046;-75
2023/04/24 06:27:27;;;;;;;3.30;2.10;;;11.50;99.90;;;;;;5019433;28;20042;-76
2023/04/24 06:29:54;;;;;;;2.42;1.65;;;11.50;99.90;;;;;;5020830;28;20145;-76
2023/04/24 06:32:23;;;;;;;2.55;1.48;;;11.50;99.90;;;;;;5022441;28;20555;-76
2023/04/24 06:34:53;;;;;;;2.08;1.20;;;11.60;99.90;;;;;;5022914;28;20448;-76
2023/04/24 06:37:20;;;;;;;2.83;1.58;;;11.60;99.90;;;;;;5024624;28;20549;-75
2023/04/24 06:39:47;;;;;;;2.28;1.30;;;11.60;99.90;;;;;;5022777;28;20092;-76
2023/04/24 06:42:14;;;;;;;2.92;1.60;;;11.70;99.90;;;;;;5022207;28;20389;-76
2023/04/24 06:44:41;;;;;;;4.38;2.85;;;11.80;99.90;;;;;;5021151;28;20046;-76
2023/04/24 06:47:13;;;;;;;2.20;1.35;;;11.80;99.90;;;;;;5023657;28;20514;-76
2023/04/24 06:49:40;;;;;;;2.58;1.35;;;11.90;99.90;;;;;;5024973;28;20100;-75
2023/04/24 06:52:07;;;;;;;2.83;1.58;;;11.90;99.90;;;;;;5029450;28;20073;-76
2023/04/24 06:54:34;;;;;;;5.38;2.10;;;11.90;99.90;;;;;;5025217;28;20055;-76
2023/04/24 06:57:02;;;;;;;2.17;1.40;;;11.90;99.90;;;;;;5022506;28;20050;-74
2023/04/24 06:59:29;;;;;;;3.67;1.10;;;11.90;99.90;;;;;;5020615;28;20101;-76
2023/04/24 07:01:56;;;;;;;2.63;1.50;;;11.80;99.90;;;;;;5020549;28;20128;-75
2023/04/24 07:04:24;;;;;;;2.78;1.40;;;11.70;99.90;;;;;;5016638;28;20046;-75
2023/04/24 07:06:55;;;;;;;6.40;1.40;;;11.70;99.90;;;;;;5024151;28;20437;-75
2023/04/24 07:09:25;;;;;;;2.63;1.50;;;11.70;99.90;;;;;;5024187;28;20088;-75
2023/04/24 07:11:53;;;;;;;3.63;1.40;;;11.70;99.90;;;;;;5024904;28;20063;-75
2023/04/24 07:14:20;;;;;;;1.60;1.05;;;11.60;99.90;;;;;;5027344;28;20048;-75
2023/04/24 07:16:47;;;;;;;3.47;1.50;;;11.50;99.90;;;;;;5022245;28;20107;-76
2023/04/24 07:19:14;;;;;;;4.60;1.55;;;11.40;99.90;;;;;;5030714;28;20080;-75
2023/04/24 07:21:41;;;;;;;4.25;1.30;;;11.40;99.90;;;;;;5021863;28;20054;-76
2023/04/24 07:24:12;;;;;;;4.80;1.80;;;11.30;99.90;;;;;;5025752;28;20498;-75
2023/04/24 07:26:40;;;;;;;2.33;1.17;;;11.30;99.90;;;;;;5022521;28;20045;-75
2023/04/24 07:29:07;;;;;;;2.13;1.58;;;11.30;99.90;;;;;;5018667;28;20050;-77
2023/04/24 07:31:34;;;;;;;7.15;1.60;;;11.30;99.90;;;;;;5024050;28;20100;-76
2023/04/24 07:34:01;;;;;;;4.22;1.65;;;11.30;99.90;;;;;;5017097;28;20053;-76
2023/04/24 07:36:28;;;;;;;5.47;1.70;;;11.30;99.90;;;;;;5029088;28;20053;-75
2023/04/24 07:38:56;;;;;;;3.72;1.33;;;11.30;99.90;;;;;;5019110;28;20056;-76
2023/04/24 07:41:23;;;;;;;6.07;2.00;;;11.40;99.90;;;;;;5020769;28;20107;-75
2023/04/24 07:43:52;;;;;;;3.88;1.80;;;11.40;99.90;;;;;;5021008;28;20077;-75
2023/04/24 07:46:19;;;;;;;5.40;2.17;;;11.40;99.90;;;;;;5026368;28;20045;-76
2023/04/24 07:48:47;;;;;;;6.32;2.05;;;11.40;99.90;;;;;;5023330;28;20046;-75
2023/04/24 07:51:26;;;;;;;4.35;1.70;;;11.40;99.90;;;;;;5037361;28;20068;-75
2023/04/24 07:53:53;;;;;;;2.50;1.67;;;11.40;99.90;;;;;;5024258;28;20596;-75
2023/04/24 07:56:20;;;;;;;1.95;1.40;;;11.50;99.90;;;;;;5020549;28;20077;-76
2023/04/24 07:58:47;;;;;;;3.42;2.15;;;11.60;99.90;;;;;;5021061;28;20149;-76
2023/04/24 08:01:13;;;;;;;2.00;1.45;;;11.60;99.90;;;;;;5020845;28;20088;-77
2023/04/24 08:03:40;;;;;;;4.47;1.60;;;11.70;99.90;;;;;;5018200;28;20556;-74
2023/04/24 08:06:08;;;;;;;4.10;1.20;;;11.70;99.90;;;;;;5022600;28;20050;-76
2023/04/24 08:08:35;;;;;;;5.03;2.33;;;11.70;99.90;;;;;;5019715;28;20100;-76
2023/04/24 08:11:01;;;;;;;5.78;1.63;;;11.60;99.90;;;;;;5025165;28;20065;-76
2023/04/24 08:13:28;;;;;;;4.30;1.63;;;11.70;99.90;;;;;;5022547;28;20160;-76
2023/04/24 08:15:56;;;;;;;3.63;1.38;;;11.60;99.90;;;;;;5029470;28;20115;-76
2023/04/24 08:18:23;;;;;;;4.82;1.73;;;11.60;99.90;;;;;;5020010;28;20041;-75
2023/04/24 08:20:50;;;;;;;3.53;1.60;;;11.60;99.90;;;;;;5028815;28;20055;-74
2023/04/24 08:23:16;;;;;;;6.28;1.45;;;11.60;99.90;;;;;;5025418;28;20041;-76
2023/04/24 08:25:43;;;;;;;6.00;1.60;;;11.70;99.90;;;;;;5026590;28;20052;-74
2023/04/24 08:28:10;;;;;;;5.85;1.45;;;11.80;99.90;;;;;;5043178;28;20501;-74
2023/04/24 08:30:38;;;;;;;3.85;1.73;;;11.80;99.90;;;;;;5024204;28;20141;-74
2023/04/24 08:33:05;;;;;;;2.40;1.50;;;11.80;99.90;;;;;;5023317;28;20104;-75
2023/04/24 08:35:31;;;;;;;3.65;1.25;;;12.00;99.90;;;;;;5040252;28;20055;-75
2023/04/24 08:37:58;;;;;;;6.65;1.50;;;12.10;99.90;;;;;;5026657;28;20068;-74
2023/04/24 08:40:31;;;;;;;6.18;1.63;;;12.30;99.90;;;;;;5043416;28;20077;-74
2023/04/24 08:42:59;;;;;;;3.28;1.20;;;12.50;99.90;;;;;;5032811;28;20117;-74
2023/04/24 08:45:25;;;;;;;9.02;1.50;;;12.60;99.90;;;;;;5035208;28;20072;-75
2023/04/24 08:47:56;;;;;;;2.97;1.20;;;12.70;99.90;;;;;;5035211;28;20049;-75
2023/04/24 08:50:25;;;;;;;3.50;1.42;;;12.80;99.90;;;;;;5024132;28;20512;-75
2023/04/24 08:52:53;;;;;;;4.05;1.80;;;12.80;99.90;;;;;;5021832;28;20056;-75
2023/04/24 08:55:21;;;;;;;7.22;1.35;;;12.80;99.90;;;;;;5020345;28;20095;-75
2023/04/24 08:57:52;;;;;;;3.95;1.45;;;12.80;99.90;;;;;;5025219;28;20049;-75
2023/04/24 09:00:20;;;;;;;1.85;1.25;;;12.70;99.90;;;;;;5027865;28;20051;-74
2023/04/24 09:02:49;;;;;;;7.75;1.40;;;12.80;99.90;;;;;;5022961;28;20073;-75
2023/04/24 09:05:18;;;;;;;4.80;1.55;;;12.70;99.90;;;;;;5022041;28;20049;-74
2023/04/24 09:07:49;;;;;;;4.43;1.50;;;12.70;99.90;;;;;;5021940;28;20042;-74
2023/04/24 09:10:15;;;;;;;4.38;1.52;;;12.70;99.90;;;;;;5027444;28;20073;-74
2023/04/24 09:12:43;;;;;;;7.78;1.55;;;12.60;99.90;;;;;;5017091;28;20441;-74
2023/04/24 09:15:11;;;;;;;6.53;1.50;;;12.60;99.90;;;;;;5023933;28;20128;-75
2023/04/24 09:17:38;;;;;;;3.45;1.20;;;12.60;99.90;;;;;;5018700;28;20136;-75
2023/04/24 09:20:05;;;;;;;2.20;1.30;;;12.60;99.90;;;;;;5022122;28;20076;-75
2023/04/24 09:22:32;;;;;;;3.83;1.42;;;12.60;99.90;;;;;;5018612;28;20052;-77
2023/04/24 09:25:07;;;;;;;3.30;1.58;;;12.60;99.90;;;;;;5022032;28;20053;-74
2023/04/24 09:27:40;;;;;;;4.80;1.60;;;12.80;99.90;;;;;;5023378;28;20070;-74
2023/04/24 09:30:08;;;;;;;3.63;1.70;;;12.90;99.90;;;;;;5026751;28;20128;-75
2023/04/24 09:32:34;;;;;;;2.60;1.25;;;13.10;99.90;;;;;;5024435;28;20080;-74
2023/04/24 09:35:10;;;;;;;2.78;1.20;;;13.20;99.90;;;;;;5026793;28;20128;-75
2023/04/24 09:37:41;;;;;;;3.83;1.25;;;13.40;99.90;;;;;;5026304;28;20201;-75
2023/04/24 09:40:20;;;;;;;2.72;1.35;;;13.50;99.90;;;;;;5027595;28;20069;-75
2023/04/24 09:43:02;;;;;;;2.10;1.10;;;13.60;99.90;;;;;;5024341;28;20100;-74
2023/04/24 09:45:36;;;;;;;3.13;1.17;;;13.70;99.90;;;;;;5024518;28;20509;-75
2023/04/24 09:48:03;;;;;;;3.65;1.45;;;13.70;99.90;;;;;;5020304;28;20572;-75
2023/04/24 09:50:34;;;;;;;4.25;1.25;;;13.60;99.90;;;;;;5023094;28;20057;-75
2023/04/24 09:53:08;;;;;;;3.67;1.30;;;13.60;99.90;;;;;;5022284;28;20045;-75
2023/04/24 09:55:40;;;;;;;3.88;1.77;;;13.50;99.90;;;;;;5035414;28;20060;-75
2023/04/24 09:58:08;;;;;;;4.78;1.23;;;13.50;99.90;;;;;;5021004;28;20099;-75
2023/04/24 10:00:34;;;;;;;2.58;1.02;;;13.50;99.90;;;;;;5020195;28;20540;-75
2023/04/24 10:03:03;;;;;;;2.30;1.00;;;13.50;99.90;;;;;;5021535;28;20514;-75
2023/04/24 10:05:36;;;;;;;3.53;0.90;;;13.60;99.90;;;;;;5027588;28;20544;-75
2023/04/24 10:08:08;;;;;;;2.38;0.90;;;13.70;99.90;;;;;;5023550;28;20080;-75
2023/04/24 10:10:42;;;;;;;3.05;1.20;;;13.70;99.90;;;;;;5023617;28;20083;-75
2023/04/24 10:13:10;;;;;;;2.00;0.90;;;13.70;99.90;;;;;;5025078;28;20533;-74
2023/04/24 10:15:38;;;;;;;1.70;1.20;;;13.60;99.90;;;;;;5023441;28;20045;-75
2023/04/24 10:18:06;;;;;;;3.97;0.85;;;13.50;99.90;;;;;;5026529;28;20132;-75
2023/04/24 10:20:36;;;;;;;4.45;1.02;;;13.50;99.90;;;;;;5023236;28;20050;-75
2023/04/24 10:23:04;;;;;;;5.18;0.98;;;13.30;99.90;;;;;;5017418;28;20073;-75
2023/04/24 10:25:33;;;;;;;2.55;0.90;;;13.40;99.90;;;;;;5027507;28;20099;-74
2023/04/24 10:28:01;;;;;;;3.95;1.50;;;13.50;99.90;;;;;;5026374;28;20130;-74
2023/04/24 10:30:30;;;;;;;3.58;1.10;;;13.60;99.90;;;;;;5018658;28;20128;-75
2023/04/24 10:32:57;;;;;;;3.75;1.17;;;13.70;99.90;;;;;;5015955;28;20100;-75
2023/04/24 10:35:26;;;;;;;3.08;1.17;;;13.80;99.90;;;;;;5026974;28;20087;-75
2023/04/24 10:37:59;;;;;;;2.83;1.10;;;13.80;99.90;;;;;;5018779;28;20148;-75
2023/04/24 10:40:30;;;;;;;2.88;1.20;;;13.90;99.90;;;;;;5021477;28;20049;-74
2023/04/24 10:42:57;;;;;;;1.30;0.90;;;14.10;99.90;;;;;;5029619;28;20049;-75
2023/04/24 10:45:25;;;;;;;3.05;1.17;;;13.90;99.90;;;;;;5021219;28;20064;-76
2023/04/24 10:48:18;;;;;;;2.60;1.30;;;14.00;99.90;;;;;;5025566;28;20046;-75
2023/04/24 10:50:54;;;;;;;6.05;1.30;;;14.00;99.90;;;;;;5024050;28;20042;-75
2023/04/24 10:53:23;;;;;;;3.70;1.77;;;14.10;99.90;;;;;;5023042;28;20049;-74
2023/04/24 10:55:51;;;;;;;2.67;1.48;;;14.10;99.90;;;;;;5027391;28;20050;-75
2023/04/24 10:58:39;;;;;;;3.97;1.63;;;14.00;99.90;;;;;;5023321;28;20103;-74
2023/04/24 11:01:07;;;;;;;2.90;1.20;;;13.90;99.90;;;;;;5018380;28;20053;-74
2023/04/24 11:03:35;;;;;;;3.08;1.80;;;13.90;99.90;;;;;;5015740;28;20103;-75
2023/04/24 11:06:07;;;;;;;1.40;0.90;;;13.80;99.90;;;;;;5017008;28;20456;-74
2023/04/24 11:08:39;;;;;;;3.78;1.10;;;13.80;99.90;;;;;;5014053;28;20128;-74
2023/04/24 11:11:14;;;;;;;4.03;1.65;;;13.70;99.90;;;;;;5022115;28;20045;-75
2023/04/24 11:13:53;;;;;;;4.53;1.70;;;13.80;99.90;;;;;;5023245;28;20053;-75
2023/04/24 11:16:34;;;;;;;3.88;1.40;;;13.80;99.90;;;;;;5026610;28;20041;-75
2023/04/24 11:19:07;;;;;;;3.25;1.40;;;13.90;99.90;;;;;;5021859;28;20713;-74
2023/04/24 11:21:57;;;;;;;6.68;1.20;;;14.00;99.90;;;;;;5025441;28;20053;-74
2023/04/24 11:24:39;;;;;;;5.00;1.20;;;14.10;99.90;;;;;;5023328;28;20052;-74
2023/04/24 11:27:19;;;;;;;2.78;1.40;;;14.10;99.90;;;;;;5022840;28;20042;-74
2023/04/24 11:29:55;;;;;;;3.60;1.27;;;14.30;99.90;;;;;;5020797;28;20050;-74
2023/04/24 11:32:31;;;;;;;5.57;1.80;;;14.40;99.90;;;;;;5020394;28;20057;-74
2023/04/24 11:35:12;;;;;;;5.22;1.52;;;14.50;99.90;;;;;;5022045;28;20045;-74
2023/04/24 11:37:42;;;;;;;2.05;1.10;;;14.60;99.90;;;;;;5019879;28;20092;-74
2023/04/24 11:40:11;;;;;;;3.95;1.20;;;14.50;99.90;;;;;;5024763;28;20073;-74
2023/04/24 11:42:40;;;;;;;2.10;1.10;;;14.40;99.90;;;;;;5019508;28;20068;-74
2023/04/24 11:45:09;;;;;;;2.42;1.25;;;14.30;99.90;;;;;;5028059;28;20043;-74
2023/04/24 11:47:36;;;;;;;3.22;1.10;;;14.30;99.90;;;;;;5021023;28;20141;-74
2023/04/24 11:50:05;;;;;;;5.18;1.27;;;14.30;99.90;;;;;;5027088;28;20052;-74
2023/04/24 11:52:36;;;;;;;1.20;0.90;;;14.30;99.90;;;;;;5022039;28;20053;-74
2023/04/24 11:55:03;;;;;;;3.92;1.13;;;14.30;99.90;;;;;;5028526;28;20053;-74
2023/04/24 11:57:34;;;;;;;3.20;1.10;;;14.30;99.90;;;;;;5030819;28;20051;-74
2023/04/24 12:00:02;;;;;;;1.27;1.02;;;14.40;99.90;;;;;;5025355;28;20053;-75
2023/04/24 12:02:30;;;;;;;4.63;1.55;;;14.30;99.90;;;;;;5032707;28;20049;-75
2023/04/24 12:04:57;;;;;;;1.15;1.00;;;14.40;99.90;;;;;;5025110;28;20108;-74
2023/04/24 12:07:25;;;;;;;1.63;0.80;;;14.40;99.90;;;;;;5022730;28;20046;-75
2023/04/24 12:09:59;;;;;;;3.60;1.30;;;14.50;99.90;;;;;;5025567;28;20624;-76
2023/04/24 12:12:28;;;;;;;2.28;1.20;;;14.60;99.90;;;;;;5019194;28;20099;-74
2023/04/24 12:14:56;;;;;;;4.55;1.20;;;14.60;99.90;;;;;;5020806;28;20049;-74
2023/04/24 12:17:29;;;;;;;3.65;1.35;;;14.60;99.90;;;;;;5018883;28;20088;-74
2023/04/24 12:20:07;;;;;;;3.55;1.08;;;14.50;99.90;;;;;;5026150;28;20573;-74
2023/04/24 12:22:54;;;;;;;2.45;0.98;;;14.50;99.90;;;;;;5018752;28;20103;-74
2023/04/24 12:25:24;;;;;;;5.53;1.65;;;14.40;99.90;;;;;;5027084;28;20053;-75
2023/04/24 12:28:02;;;;;;;2.90;1.30;;;14.50;99.90;;;;;;5022622;28;20093;-75
2023/04/24 12:30:31;;;;;;;3.60;1.50;;;14.60;99.90;;;;;;5027857;28;20140;-74
2023/04/24 12:33:00;;;;;;;4.75;1.27;;;14.70;99.90;;;;;;5023204;28;20490;-75
2023/04/24 12:35:33;;;;;;;2.15;1.13;;;14.70;99.90;;;;;;5025249;28;20053;-74
2023/04/24 12:38:12;;;;;;;1.83;1.20;;;14.60;99.90;;;;;;5027808;28;20053;-74
2023/04/24 12:40:41;;;;;;;2.53;1.42;;;14.60;99.90;;;;;;5020343;28;21135;-74
2023/04/24 12:43:16;;;;;;;4.63;1.92;;;14.60;99.90;;;;;;5024419;28;20164;-75
2023/04/24 12:45:43;;;;;;;3.50;1.80;;;14.50;99.90;;;;;;5023325;28;20052;-74
2023/04/24 12:48:09;;;;;;;2.58;1.27;;;14.60;99.90;;;;;;5015792;28;20072;-74
2023/04/24 12:50:37;;;;;;;3.17;1.00;;;14.60;99.90;;;;;;5020920;28;20456;-74
2023/04/24 12:53:04;;;;;;;2.55;1.27;;;14.50;99.90;;;;;;5016156;28;20054;-76